createdAt,value
2023-04-21T00:01:26.101Z,24.90
2023-04-21T00:03:52.689Z,25.25
2023-04-21T00:06:22.687Z,26.75
2023-04-21T00:08:50.161Z,26.90
2023-04-21T00:11:16.586Z,26.83
2023-04-21T00:13:43.061Z,26.52
2023-04-21T00:16:09.577Z,26.55
2023-04-21T00:18:36.029Z,25.75
2023-04-21T00:21:02.555Z,27.48
2023-04-21T00:23:28.998Z,27.92
2023-04-21T00:25:55.466Z,25.45
2023-04-21T00:28:21.911Z,26.15
2023-04-21T00:30:48.282Z,26.63
2023-04-21T00:33:14.653Z,28.60
2023-04-21T00:35:41.022Z,27.45
2023-04-21T00:38:07.389Z,27.17
2023-04-21T00:40:33.957Z,29.88
2023-04-21T00:43:00.431Z,27.65
2023-04-21T00:45:26.826Z,29.17
2023-04-21T00:47:53.274Z,28.02
2023-04-21T00:50:19.693Z,28.50
2023-04-21T00:52:47.035Z,27.27
2023-04-21T00:55:14.303Z,26.90
2023-04-21T00:57:40.737Z,27.35
2023-04-21T01:00:08.898Z,28.58
2023-04-21T01:02:35.782Z,28.52
2023-04-21T01:05:05.397Z,28.70
2023-04-21T01:07:31.892Z,29.90
2023-04-21T01:09:59.679Z,30.08
2023-04-21T01:12:26.044Z,30.08
2023-04-21T01:14:52.491Z,30.85
2023-04-21T01:17:19.074Z,28.55
2023-04-21T01:19:45.941Z,29.08
2023-04-21T01:22:12.974Z,29.55
2023-04-21T01:24:42.904Z,29.67
2023-04-21T01:27:11.198Z,30.55
2023-04-21T01:29:38.738Z,30.27
2023-04-21T01:32:11.816Z,27.95
2023-04-21T01:34:39.697Z,31.55
2023-04-21T01:37:14.175Z,30.15
2023-04-21T01:39:42.164Z,31.25
2023-04-21T01:42:09.079Z,30.20
2023-04-21T01:44:35.928Z,31.77
2023-04-21T01:47:02.393Z,31.40
2023-04-21T01:49:28.766Z,29.70
2023-04-21T01:51:55.177Z,31.73
2023-04-21T01:54:21.583Z,32.95
2023-04-21T01:56:47.966Z,33.28
2023-04-21T01:59:14.385Z,32.58
2023-04-21T02:01:40.908Z,31.65
2023-04-21T02:04:07.738Z,33.17
2023-04-21T02:06:34.309Z,30.85
2023-04-21T02:09:00.678Z,33.28
2023-04-21T02:11:27.042Z,33.58
2023-04-21T02:13:54.150Z,32.78
2023-04-21T02:16:20.703Z,30.90
2023-04-21T02:18:48.291Z,32.28
2023-04-21T02:21:15.451Z,34.75
2023-04-21T02:23:41.849Z,33.13
2023-04-21T02:26:08.277Z,34.88
2023-04-21T02:28:34.737Z,37.17
2023-04-21T02:31:01.105Z,35.63
2023-04-21T02:33:27.532Z,36.78
2023-04-21T02:35:53.982Z,36.10
2023-04-21T02:38:20.410Z,39.95
2023-04-21T02:40:46.771Z,40.53
2023-04-21T02:43:16.784Z,39.15
2023-04-21T02:45:43.162Z,35.97
2023-04-21T02:48:09.791Z,36.38
2023-04-21T02:50:36.511Z,41.70
2023-04-21T02:53:02.866Z,40.22
2023-04-21T02:55:29.660Z,39.58
2023-04-21T02:57:56.364Z,40.05
2023-04-21T03:00:22.853Z,40.38
2023-04-21T03:02:49.417Z,39.63
2023-04-21T03:05:16.005Z,36.53
2023-04-21T03:07:42.382Z,38.28
2023-04-21T03:10:08.814Z,38.70
2023-04-21T03:12:35.382Z,39.08
2023-04-21T03:15:01.762Z,37.97
2023-04-21T03:17:29.394Z,38.40
2023-04-21T03:19:57.287Z,38.22
2023-04-21T03:22:23.655Z,38.25
2023-04-21T03:24:50.032Z,38.60
2023-04-21T03:27:16.412Z,40.08
2023-04-21T03:29:42.782Z,38.40
2023-04-21T03:32:09.201Z,38.00
2023-04-21T03:34:35.771Z,37.65
2023-04-21T03:37:02.143Z,39.13
2023-04-21T03:39:28.526Z,38.70
2023-04-21T03:41:54.893Z,39.45
2023-04-21T03:44:21.300Z,41.13
2023-04-21T03:46:47.664Z,40.67
2023-04-21T03:49:14.045Z,39.67
2023-04-21T03:51:40.420Z,40.28
2023-04-21T03:54:06.999Z,39.97
2023-04-21T03:56:33.362Z,37.63
2023-04-21T03:58:59.743Z,37.50
2023-04-21T04:01:26.612Z,38.85
2023-04-21T04:03:53.242Z,36.00
2023-04-21T04:06:19.746Z,38.83
2023-04-21T04:08:46.429Z,39.75
2023-04-21T04:11:12.796Z,35.90
2023-04-21T04:13:39.188Z,38.40
2023-04-21T04:16:05.972Z,34.90
2023-04-21T04:18:32.379Z,35.08
2023-04-21T04:20:58.741Z,37.22
2023-04-21T04:23:26.027Z,36.47
2023-04-21T04:25:52.394Z,38.97
2023-04-21T04:28:18.779Z,37.63
2023-04-21T04:30:45.359Z,37.15
2023-04-21T04:33:11.868Z,37.10
2023-04-21T04:35:38.599Z,39.25
2023-04-21T04:38:04.970Z,38.30
2023-04-21T04:40:33.161Z,39.53
2023-04-21T04:43:01.250Z,38.60
2023-04-21T04:45:28.475Z,41.08
2023-04-21T04:47:54.916Z,43.88
2023-04-21T04:50:21.370Z,44.60
2023-04-21T04:52:48.989Z,43.90
2023-04-21T04:55:15.482Z,42.25
2023-04-21T04:57:41.917Z,41.97
2023-04-21T05:00:11.184Z,39.70
2023-04-21T05:02:38.495Z,43.35
2023-04-21T05:05:07.074Z,44.83
2023-04-21T05:07:36.954Z,39.00
2023-04-21T05:10:04.470Z,40.25
2023-04-21T05:12:32.238Z,41.40
2023-04-21T05:14:58.690Z,40.85
2023-04-21T05:17:25.523Z,44.78
2023-04-21T05:19:51.937Z,41.53
2023-04-21T05:22:18.289Z,41.40
2023-04-21T05:24:44.729Z,42.40
2023-04-21T05:27:11.086Z,44.78
2023-04-21T05:29:37.502Z,44.95
2023-04-21T05:32:03.982Z,42.88
2023-04-21T05:34:30.487Z,42.45
2023-04-21T05:36:56.916Z,43.63
2023-04-21T05:39:23.362Z,44.10
2023-04-21T05:41:49.740Z,43.20
2023-04-21T05:44:18.174Z,44.35
2023-04-21T05:46:44.771Z,42.22
2023-04-21T05:49:11.433Z,45.35
2023-04-21T05:51:37.804Z,43.67
2023-04-21T05:54:04.176Z,44.03
2023-04-21T05:56:30.557Z,42.70
2023-04-21T05:58:56.923Z,43.72
2023-04-21T06:01:23.285Z,43.33
2023-04-21T06:03:50.350Z,41.95
2023-04-21T06:06:17.514Z,42.67
2023-04-21T06:08:43.994Z,43.30
2023-04-21T06:11:10.367Z,43.88
2023-04-21T06:13:38.594Z,42.22
2023-04-21T06:16:05.989Z,44.28
2023-04-21T06:18:32.422Z,44.08
2023-04-21T06:20:58.786Z,44.05
2023-04-21T06:23:25.353Z,43.05
2023-04-21T06:26:06.647Z,45.15
2023-04-21T06:31:01.560Z,41.40
2023-04-21T06:33:28.184Z,42.95
2023-04-21T06:35:54.625Z,42.63
2023-04-21T06:38:21.363Z,44.17
2023-04-21T06:40:47.908Z,43.10
2023-04-21T06:43:14.403Z,40.53
2023-04-21T06:45:40.802Z,43.00
2023-04-21T06:48:07.290Z,40.63
2023-04-21T06:50:33.746Z,40.63
2023-04-21T06:53:00.213Z,41.17
2023-04-21T06:55:26.592Z,42.33
2023-04-21T06:57:52.991Z,41.42
2023-04-21T07:00:19.474Z,43.28
2023-04-21T07:02:45.952Z,43.97
2023-04-21T07:05:12.572Z,40.10
2023-04-21T07:07:38.945Z,42.35
2023-04-21T07:10:05.756Z,41.88
2023-04-21T07:12:32.122Z,40.65
2023-04-21T07:14:58.493Z,39.83
2023-04-21T07:17:24.933Z,42.53
2023-04-21T07:19:51.326Z,40.17
2023-04-21T07:22:17.690Z,40.72
2023-04-21T07:24:44.107Z,38.75
2023-04-21T07:27:10.654Z,37.65
2023-04-21T07:29:37.422Z,39.80
2023-04-21T07:32:03.834Z,38.30
2023-04-21T07:34:30.211Z,35.58
2023-04-21T07:36:56.742Z,39.40
2023-04-21T07:39:23.119Z,39.30
2023-04-21T07:41:49.578Z,40.55
2023-04-21T07:44:15.960Z,39.22
2023-04-21T07:46:42.379Z,36.88
2023-04-21T07:49:08.839Z,38.65
2023-04-21T07:51:35.252Z,40.60
2023-04-21T07:54:01.870Z,38.28
2023-04-21T07:56:28.274Z,37.88
2023-04-21T07:58:54.972Z,35.97
2023-04-21T08:01:22.321Z,38.08
2023-04-21T08:03:48.976Z,37.05
2023-04-21T08:06:15.844Z,39.13
2023-04-21T08:08:42.604Z,39.30
2023-04-21T08:11:10.801Z,39.33
2023-04-21T08:13:37.523Z,37.78
2023-04-21T08:16:04.030Z,37.30
2023-04-21T08:18:31.139Z,36.90
2023-04-21T08:20:57.952Z,37.17
2023-04-21T08:23:24.566Z,35.45
2023-04-21T08:25:51.044Z,37.47
2023-04-21T08:28:17.482Z,36.35
2023-04-21T08:30:43.877Z,35.67
2023-04-21T08:33:13.585Z,34.10
2023-04-21T08:35:47.963Z,33.40
2023-04-21T08:38:21.724Z,34.17
2023-04-21T08:40:49.552Z,32.10
2023-04-21T08:43:16.015Z,34.13
2023-04-21T08:45:43.571Z,32.60
2023-04-21T08:48:16.278Z,32.92
2023-04-21T08:50:43.068Z,35.03
2023-04-21T08:53:09.753Z,31.02
2023-04-21T08:55:36.303Z,34.42
2023-04-21T08:58:06.880Z,35.45
2023-04-21T09:00:33.278Z,34.30
2023-04-21T09:03:02.112Z,31.88
2023-04-21T09:05:31.013Z,34.63
2023-04-21T09:08:11.645Z,33.50
2023-04-21T09:10:52.457Z,34.25
2023-04-21T09:13:20.259Z,31.45
2023-04-21T09:15:49.596Z,38.45
2023-04-21T09:18:18.204Z,38.22
2023-04-21T09:20:45.978Z,35.53
2023-04-21T09:23:12.453Z,31.42
2023-04-21T09:25:40.688Z,46.28
2023-04-21T09:28:11.429Z,35.88
2023-04-21T09:30:39.266Z,39.53
2023-04-21T09:33:13.382Z,48.78
2023-04-21T09:35:47.931Z,34.72
2023-04-21T09:38:15.472Z,32.90
2023-04-21T09:40:41.841Z,32.35
2023-04-21T09:43:09.350Z,33.45
2023-04-21T09:45:40.097Z,32.90
2023-04-21T09:48:09.575Z,39.50
2023-04-21T09:51:11.465Z,34.58
2023-04-21T09:53:24.892Z,35.50
2023-04-21T09:55:51.693Z,54.20
2023-04-21T09:58:20.665Z,33.95
2023-04-21T10:00:47.394Z,31.25
2023-04-21T10:03:14.535Z,31.02
2023-04-21T10:05:42.999Z,31.70
2023-04-21T10:08:11.516Z,32.33
2023-04-21T10:10:38.730Z,31.20
2023-04-21T10:13:05.199Z,30.25
2023-04-21T10:15:35.954Z,30.20
2023-04-21T10:18:25.164Z,30.70
2023-04-21T10:20:58.565Z,29.48
2023-04-21T10:23:52.046Z,28.40
2023-04-21T10:26:34.317Z,28.85
2023-04-21T10:31:36.940Z,28.73
2023-04-21T10:34:09.260Z,27.88
2023-04-21T10:36:42.289Z,28.98
2023-04-21T10:39:08.971Z,27.70
2023-04-21T10:41:35.926Z,27.25
2023-04-21T10:44:14.272Z,27.67
2023-04-21T10:46:46.128Z,26.15
2023-04-21T10:49:30.068Z,25.25
2023-04-21T10:51:59.580Z,26.52
2023-04-21T10:54:26.652Z,26.30
2023-04-21T10:56:54.173Z,26.25
2023-04-21T10:59:20.614Z,26.15
2023-04-21T11:01:47.274Z,25.60
2023-04-21T11:04:18.115Z,23.60
2023-04-21T11:07:07.964Z,24.30
2023-04-21T11:09:35.890Z,23.80
2023-04-21T11:12:04.478Z,24.48
2023-04-21T11:14:31.122Z,23.48
2023-04-21T11:16:57.627Z,23.80
2023-04-21T11:19:25.769Z,23.48
2023-04-21T11:21:55.240Z,25.20
2023-04-21T11:24:21.941Z,24.42
2023-04-21T11:26:48.444Z,24.25
2023-04-21T11:29:15.193Z,24.25
2023-04-21T11:31:44.165Z,25.48
2023-04-21T11:34:10.711Z,24.98
2023-04-21T11:36:39.984Z,23.95
2023-04-21T11:39:10.376Z,25.23
2023-04-21T11:41:39.823Z,23.85
2023-04-21T11:44:06.238Z,23.30
2023-04-21T11:46:39.973Z,23.90
2023-04-21T11:49:07.715Z,23.98
2023-04-21T11:51:41.686Z,23.88
2023-04-21T11:54:10.384Z,23.25
2023-04-21T11:56:41.804Z,23.45
2023-04-21T11:59:12.081Z,22.55
2023-04-21T12:01:49.187Z,22.23
2023-04-21T12:04:17.544Z,22.25
2023-04-21T12:06:54.817Z,22.80
2023-04-21T12:09:21.431Z,22.67
2023-04-21T12:11:52.058Z,22.67
2023-04-21T12:14:20.674Z,22.75
2023-04-21T12:16:54.868Z,23.30
2023-04-21T12:19:41.258Z,22.83
2023-04-21T12:22:12.086Z,22.15
2023-04-21T12:24:38.690Z,22.25
2023-04-21T12:27:05.696Z,23.20
2023-04-21T12:29:33.889Z,22.95
2023-04-21T12:32:00.500Z,22.58
2023-04-21T12:34:27.007Z,23.05
2023-04-21T12:36:53.401Z,21.23
2023-04-21T12:39:20.397Z,23.15
2023-04-21T12:41:49.731Z,22.45
2023-04-21T12:44:16.268Z,21.27
2023-04-21T12:46:42.756Z,21.20
2023-04-21T12:49:10.019Z,20.38
2023-04-21T12:51:36.658Z,20.85
2023-04-21T12:54:03.361Z,20.77
2023-04-21T12:56:30.002Z,19.75
2023-04-21T12:58:56.410Z,20.17
2023-04-21T13:01:22.859Z,21.95
2023-04-21T13:03:49.446Z,21.13
2023-04-21T13:06:15.981Z,20.13
2023-04-21T13:08:42.376Z,19.40
2023-04-21T13:11:08.736Z,20.60
2023-04-21T13:13:35.215Z,21.00
2023-04-21T13:16:01.613Z,20.10
2023-04-21T13:18:27.989Z,20.88
2023-04-21T13:20:54.364Z,19.92
2023-04-21T13:23:20.774Z,20.70
2023-04-21T13:25:47.184Z,20.50
2023-04-21T13:28:14.302Z,21.15
2023-04-21T13:30:40.777Z,19.25
2023-04-21T13:33:07.201Z,21.42
2023-04-21T13:35:33.588Z,20.30
2023-04-21T13:38:00.077Z,20.15
2023-04-21T13:40:26.537Z,19.60
2023-04-21T13:42:52.936Z,20.35
2023-04-21T13:45:19.321Z,20.20
2023-04-21T13:47:46.384Z,20.25
2023-04-21T13:50:12.833Z,20.10
2023-04-21T13:52:39.236Z,18.98
2023-04-21T13:55:05.999Z,19.67
2023-04-21T13:57:32.499Z,20.30
2023-04-21T13:59:58.935Z,19.25
2023-04-21T14:02:25.908Z,18.85
2023-04-21T14:04:53.388Z,19.95
2023-04-21T14:07:20.393Z,19.83
2023-04-21T14:09:46.807Z,19.85
2023-04-21T14:12:13.270Z,19.75
2023-04-21T14:14:39.717Z,20.23
2023-04-21T14:17:07.185Z,19.50
2023-04-21T14:19:34.722Z,18.83
2023-04-21T14:22:01.502Z,19.88
2023-04-21T14:24:29.912Z,19.23
2023-04-21T14:26:57.428Z,19.48
2023-04-21T14:29:23.841Z,19.60
2023-04-21T14:31:50.544Z,19.40
2023-04-21T14:34:17.054Z,19.10
2023-04-21T14:36:43.483Z,18.25
2023-04-21T14:39:10.247Z,20.02
2023-04-21T14:41:36.715Z,18.60
2023-04-21T14:44:03.797Z,18.70
2023-04-21T14:46:30.305Z,20.55
2023-04-21T14:48:57.506Z,19.65
2023-04-21T14:51:23.963Z,19.48
2023-04-21T14:53:51.139Z,20.13
2023-04-21T14:56:18.658Z,18.45
2023-04-21T14:58:45.135Z,18.90
2023-04-21T15:01:11.593Z,19.30
2023-04-21T15:03:38.245Z,20.02
2023-04-21T15:06:04.889Z,17.60
2023-04-21T15:08:31.251Z,18.13
2023-04-21T15:10:57.986Z,18.05
2023-04-21T15:13:24.474Z,18.27
2023-04-21T15:15:52.109Z,17.63
2023-04-21T15:18:18.739Z,18.58
2023-04-21T15:20:45.933Z,19.08
2023-04-21T15:23:12.915Z,18.00
2023-04-21T15:25:40.296Z,17.60
2023-04-21T15:28:07.405Z,18.55
2023-04-21T15:30:33.915Z,17.88
2023-04-21T15:33:01.232Z,18.48
2023-04-21T15:35:27.646Z,18.20
2023-04-21T15:37:54.138Z,19.73
2023-04-21T15:40:20.532Z,18.90
2023-04-21T15:42:47.037Z,19.10
2023-04-21T15:45:13.444Z,18.55
2023-04-21T15:47:39.926Z,18.85
2023-04-21T15:50:07.030Z,20.85
2023-04-21T15:52:35.860Z,21.02
2023-04-21T15:55:02.293Z,20.08
2023-04-21T15:57:29.634Z,19.17
2023-04-21T15:59:56.006Z,19.70
2023-04-21T16:02:22.712Z,19.27
2023-04-21T16:04:49.324Z,19.20
2023-04-21T16:07:15.822Z,20.65
2023-04-21T16:09:42.354Z,22.08
2023-04-21T16:12:10.284Z,22.13
2023-04-21T16:14:53.625Z,22.08
2023-04-21T16:17:24.168Z,22.70
2023-04-21T16:19:52.677Z,23.85
2023-04-21T16:22:20.297Z,22.08
2023-04-21T16:24:46.818Z,22.85
2023-04-21T16:27:13.287Z,21.65
2023-04-21T16:29:39.718Z,20.08
2023-04-21T16:32:06.786Z,18.80
2023-04-21T16:34:33.385Z,18.85
2023-04-21T16:37:00.156Z,16.85
2023-04-21T16:39:27.615Z,17.48
2023-04-21T16:41:53.987Z,17.02
2023-04-21T16:44:20.475Z,19.60
2023-04-21T16:46:46.934Z,19.10
2023-04-21T16:49:13.603Z,19.08
2023-04-21T16:51:44.519Z,18.27
2023-04-21T16:54:11.619Z,18.60
2023-04-21T16:56:38.445Z,17.67
2023-04-21T16:59:05.360Z,18.05
2023-04-21T17:01:31.957Z,18.60
2023-04-21T17:03:58.838Z,15.15
2023-04-21T17:06:25.448Z,14.93
2023-04-21T17:08:59.208Z,15.57
2023-04-21T17:11:27.296Z,14.98
2023-04-21T17:13:53.854Z,15.55
2023-04-21T17:16:20.376Z,15.95
2023-04-21T17:18:46.815Z,15.15
2023-04-21T17:21:13.194Z,16.40
2023-04-21T17:23:39.617Z,15.13
2023-04-21T17:26:06.374Z,17.70
2023-04-21T17:28:32.885Z,14.07
2023-04-21T17:31:13.754Z,11.00
2023-04-21T17:33:42.387Z,10.18
2023-04-21T17:36:08.840Z,8.10
2023-04-21T17:38:35.408Z,8.68
2023-04-21T17:41:02.170Z,7.05
2023-04-21T17:43:28.685Z,7.85
2023-04-21T17:45:55.164Z,7.00
2023-04-21T17:48:21.715Z,7.25
2023-04-21T17:50:48.136Z,7.10
2023-04-21T17:53:14.553Z,12.73
2023-04-21T17:55:41.020Z,9.13
2023-04-21T17:58:09.395Z,7.90
2023-04-21T18:00:38.140Z,8.25
2023-04-21T18:03:04.928Z,7.43
2023-04-21T18:05:32.106Z,7.05
2023-04-21T18:07:58.712Z,7.47
2023-04-21T18:10:26.436Z,8.40
2023-04-21T18:12:54.658Z,9.48
2023-04-21T18:15:21.073Z,9.18
2023-04-21T18:17:47.614Z,8.35
2023-04-21T18:20:14.925Z,9.93
2023-04-21T18:22:43.594Z,15.05
2023-04-21T18:25:11.689Z,13.57
2023-04-21T18:27:41.526Z,13.38
2023-04-21T18:30:09.105Z,12.80
2023-04-21T18:32:36.366Z,16.55
2023-04-21T18:35:03.569Z,14.85
2023-04-21T18:37:30.343Z,15.77
2023-04-21T18:39:57.415Z,16.70
2023-04-21T18:42:27.721Z,19.67
2023-04-21T18:44:57.082Z,27.00
2023-04-21T18:47:24.566Z,24.52
2023-04-21T18:49:51.461Z,21.13
2023-04-21T18:52:17.862Z,16.33
2023-04-21T18:54:44.229Z,17.23
2023-04-21T18:57:10.836Z,17.40
2023-04-21T18:59:37.237Z,17.80
2023-04-21T19:02:05.943Z,14.93
2023-04-21T19:04:32.465Z,16.30
2023-04-21T19:06:58.839Z,16.23
2023-04-21T19:09:27.113Z,16.95
2023-04-21T19:11:53.497Z,13.52
2023-04-21T19:14:19.898Z,13.68
2023-04-21T19:16:47.384Z,16.80
2023-04-21T19:19:13.776Z,15.82
2023-04-21T19:21:40.357Z,21.98
2023-04-21T19:24:06.818Z,19.30
2023-04-21T19:26:33.184Z,18.92
2023-04-21T19:28:59.583Z,19.77
2023-04-21T19:31:26.400Z,19.95
2023-04-21T19:33:52.788Z,20.35
2023-04-21T19:36:19.147Z,21.80
2023-04-21T19:38:45.579Z,20.80
2023-04-21T19:41:11.934Z,19.10
2023-04-21T19:43:38.284Z,18.33
2023-04-21T19:46:04.708Z,20.83
2023-04-21T19:48:31.345Z,25.55
2023-04-21T19:50:57.801Z,25.30
2023-04-21T19:53:24.220Z,22.48
2023-04-21T19:55:52.569Z,22.35
2023-04-21T19:58:31.951Z,25.42
2023-04-21T20:01:05.038Z,23.95
2023-04-21T20:03:31.653Z,26.83
2023-04-21T20:05:58.397Z,28.10
2023-04-21T20:08:24.765Z,27.50
2023-04-21T20:10:51.107Z,29.35
2023-04-21T20:13:17.473Z,35.67
2023-04-21T20:15:44.012Z,28.17
2023-04-21T20:18:10.776Z,29.73
2023-04-21T20:20:37.291Z,28.65
2023-04-21T20:23:03.842Z,26.15
2023-04-21T20:25:30.836Z,29.88
2023-04-21T20:27:57.473Z,23.50
2023-04-21T20:30:23.873Z,28.13
2023-04-21T20:32:50.430Z,27.90
2023-04-21T20:35:17.112Z,25.85
2023-04-21T20:37:44.353Z,14.32
2023-04-21T20:40:11.768Z,10.98
2023-04-21T20:42:38.761Z,7.57
2023-04-21T20:45:06.399Z,7.25
2023-04-21T20:47:33.922Z,5.75
2023-04-21T20:50:00.468Z,7.65
2023-04-21T20:52:26.940Z,7.80
2023-04-21T20:54:53.322Z,7.38
2023-04-21T20:57:19.779Z,6.82
2023-04-21T20:59:46.187Z,6.13
2023-04-21T21:02:12.690Z,6.18
2023-04-21T21:04:39.317Z,7.80
2023-04-21T21:07:06.276Z,8.18
2023-04-21T21:09:32.759Z,22.25
2023-04-21T21:11:59.272Z,26.90
2023-04-21T21:14:25.875Z,11.27
2023-04-21T21:16:54.510Z,22.70
2023-04-21T21:19:21.791Z,29.08
2023-04-21T21:21:48.147Z,26.17
2023-04-21T21:24:14.511Z,20.10
2023-04-21T21:26:42.715Z,12.25
2023-04-21T21:29:09.341Z,11.15
2023-04-21T21:31:35.793Z,10.65
2023-04-21T21:34:03.837Z,10.73
2023-04-21T21:36:31.691Z,10.55
2023-04-21T21:38:58.115Z,10.20
2023-04-21T21:41:24.573Z,9.82
2023-04-21T21:43:51.035Z,10.15
2023-04-21T21:46:18.574Z,12.18
2023-04-21T21:48:45.190Z,13.10
2023-04-21T21:51:11.957Z,9.02
2023-04-21T21:53:38.391Z,9.05
2023-04-21T21:56:05.059Z,11.23
2023-04-21T21:58:31.604Z,12.25
2023-04-21T22:00:58.085Z,12.15
2023-04-21T22:03:24.755Z,11.10
2023-04-21T22:05:52.146Z,10.50
2023-04-21T22:08:18.540Z,10.77
2023-04-21T22:10:45.133Z,11.65
2023-04-21T22:13:11.994Z,11.43
2023-04-21T22:15:38.776Z,11.20
2023-04-21T22:18:05.489Z,11.80
2023-04-21T22:20:32.085Z,12.05
2023-04-21T22:22:59.125Z,12.93
2023-04-21T22:25:27.089Z,12.98
2023-04-21T22:27:56.980Z,13.68
2023-04-21T22:30:23.457Z,14.55
2023-04-21T22:32:49.995Z,13.93
2023-04-21T22:35:16.761Z,12.85
2023-04-21T22:37:43.166Z,14.38
2023-04-21T22:40:10.346Z,13.68
2023-04-21T22:42:37.025Z,12.23
2023-04-21T22:45:05.240Z,11.82
2023-04-21T22:47:33.328Z,12.57
2023-04-21T22:49:59.779Z,11.18
2023-04-21T22:52:26.850Z,11.93
2023-04-21T22:54:53.569Z,11.90
2023-04-21T22:57:21.371Z,11.70
2023-04-21T22:59:47.839Z,11.13
2023-04-21T23:02:14.333Z,11.05
2023-04-21T23:04:40.827Z,12.65
2023-04-21T23:07:07.669Z,12.68
2023-04-21T23:09:34.088Z,14.15
2023-04-21T23:12:01.358Z,14.60
2023-04-21T23:14:27.806Z,14.63
2023-04-21T23:16:54.425Z,14.70
2023-04-21T23:19:20.905Z,13.68
2023-04-21T23:21:47.332Z,14.05
2023-04-21T23:24:13.965Z,15.38
2023-04-21T23:26:41.068Z,12.82
2023-04-21T23:29:07.521Z,11.70
2023-04-21T23:31:34.217Z,12.55
2023-04-21T23:34:00.746Z,13.13
2023-04-21T23:36:27.146Z,18.23
2023-04-21T23:38:53.872Z,15.68
2023-04-21T23:41:20.727Z,18.77
2023-04-21T23:43:47.137Z,18.63
2023-04-21T23:46:14.954Z,15.07
2023-04-21T23:48:41.476Z,16.30
2023-04-21T23:51:07.984Z,17.63
2023-04-21T23:53:34.439Z,17.70
2023-04-21T23:56:00.913Z,18.15
2023-04-21T23:58:28.031Z,16.77
